»·PEaware :: UAL925 EGLL-KIAD

UAL925 :: EGLL-KIAD

FLIGHT INFORMATION

Flight Status: Arrived
Operator:
United Airlines
More flights by this operator :: More flights under this callsign
Pilot: Jamyson D. (13674)
Aircraft: Unknown
(B77W)
More flights by this aircraft type
Origin: EGLL Heathrow
United Kingdom
Destination: KIAD Washington Dulles Intl
United States
More flights between these airports :: More routes between these airports
Route: CPT3G CPT UL9 KENET UN14 MEDOG UL18 LIPGO LAPMO RESNO NATC 52N050W NATC TUDEP DANOL ENE BAF HYPER7
File this flight plan on PilotEdge
Remarks:
Altitude:
(Current/Filed)
34,000ft
Speed:
(Current/Filed)
482kts
Departed: 02-Jun-18 09:36 AM
Arrived: 02-Jun-18 08:33 PM
Distance/Time
Traveled:
3184nm/10:57
Distance/Time
To Go:
Arrived

Flight Plot

Page will automatically refresh every two minutes.

Flight plan parsing failed; only flown route is shown


Map Options




Map Legend


Flown Route
Filed Route
Departure Airport
Arrival Airport
Navaid (VOR, NDB)
Fix

Horizontal Profiles

Position Reports

Time Latitude Longitude Heading Altitude Ground
Speed
02-Jun-18 09:25 51.470998 -0.441677 269 96ft 2kts
02-Jun-18 09:26 51.470994 -0.440772 260 96ft 2kts
02-Jun-18 09:27 51.471265 -0.440571 179 96ft 2kts
02-Jun-18 09:28 51.471420 -0.440573 179 96ft 0kts
02-Jun-18 09:29 51.471420 -0.440573 179 96ft 0kts
02-Jun-18 09:30 51.471084 -0.440570 179 96ft 13kts
02-Jun-18 09:31 51.466651 -0.437893 90 96ft 19kts
02-Jun-18 09:32 51.466657 -0.437145 87 96ft 0kts
02-Jun-18 09:33 51.466298 -0.436217 153 96ft 6kts
02-Jun-18 09:34 51.464943 -0.437176 270 96ft 0kts
02-Jun-18 09:35 51.464943 -0.437193 270 96ft 2kts
02-Jun-18 09:36 51.464852 -0.487998 270 602ft 190kts
02-Jun-18 09:37 51.464321 -0.581448 269 2639ft 240kts
02-Jun-18 09:38 51.452735 -0.692132 259 5608ft 261kts
02-Jun-18 09:39 51.454677 -0.810772 268 6017ft 265kts
02-Jun-18 09:40 51.457889 -0.928888 278 6014ft 266kts
02-Jun-18 09:41 51.472070 -1.045459 278 6007ft 266kts
02-Jun-18 09:42 51.485506 -1.162828 278 6003ft 266kts
02-Jun-18 09:43 51.499575 -1.280091 279 7355ft 271kts
02-Jun-18 09:44 51.514534 -1.401893 279 10153ft 285kts
02-Jun-18 09:45 51.542997 -1.536161 292 11537ft 353kts
02-Jun-18 09:46 51.585547 -1.688404 293 13776ft 387kts
02-Jun-18 09:47 51.630563 -1.849817 292 16434ft 402kts
02-Jun-18 09:48 51.675937 -2.017528 292 18828ft 417kts
02-Jun-18 09:49 51.723254 -2.191611 292 20999ft 432kts
02-Jun-18 09:50 51.771992 -2.372841 292 23001ft 446kts
02-Jun-18 09:51 51.819297 -2.561056 285 24842ft 458kts
02-Jun-18 09:52 51.848015 -2.764147 280 26567ft 469kts
02-Jun-18 09:53 51.876057 -2.973347 281 28123ft 481kts
02-Jun-18 09:54 51.903964 -3.186856 280 29630ft 488kts
02-Jun-18 09:55 51.931502 -3.400849 280 31369ft 484kts
02-Jun-18 09:56 51.982045 -3.601109 306 32772ft 485kts
02-Jun-18 09:57 52.074157 -3.761065 313 34007ft 485kts
02-Jun-18 09:58 52.167854 -3.920206 312 34142ft 484kts
02-Jun-18 09:59 52.261342 -4.078059 312 34141ft 485kts
02-Jun-18 10:00 52.353812 -4.238460 312 34142ft 485kts
02-Jun-18 10:01 52.446739 -4.400169 313 34140ft 487kts
02-Jun-18 10:02 52.539828 -4.562177 312 34141ft 489kts
02-Jun-18 10:03 52.632633 -4.726095 312 34138ft 491kts
02-Jun-18 10:04 52.725801 -4.891529 312 34135ft 491kts
02-Jun-18 10:05 52.818456 -5.057557 312 34133ft 492kts
02-Jun-18 10:06 52.911783 -5.223006 312 34131ft 492kts
02-Jun-18 10:07 53.004418 -5.391335 311 34129ft 493kts
02-Jun-18 10:08 53.100909 -5.550553 321 34128ft 494kts
02-Jun-18 10:09 53.210517 -5.690702 322 34122ft 497kts
02-Jun-18 10:10 53.318990 -5.834290 322 34114ft 499kts
02-Jun-18 10:11 53.417233 -5.997095 299 34102ft 503kts
02-Jun-18 10:12 53.464933 -6.217922 286 34112ft 502kts
02-Jun-18 10:13 53.510101 -6.439643 288 34106ft 502kts
02-Jun-18 10:14 53.558079 -6.659004 289 34086ft 499kts
02-Jun-18 10:15 53.605236 -6.878262 288 34087ft 496kts
02-Jun-18 10:16 53.651257 -7.096155 288 34091ft 493kts
02-Jun-18 10:17 53.696648 -7.313601 288 34092ft 491kts
02-Jun-18 10:18 53.741697 -7.531786 288 34096ft 491kts
02-Jun-18 10:19 53.786206 -7.749756 288 34099ft 491kts
02-Jun-18 10:20 53.830501 -7.969090 288 34102ft 492kts
02-Jun-18 10:21 53.874295 -8.188380 288 34105ft 492kts
02-Jun-18 10:22 53.917635 -8.407853 288 34111ft 491kts
02-Jun-18 10:23 53.960614 -8.627986 288 34111ft 489kts
02-Jun-18 10:24 54.002913 -8.847134 287 34111ft 488kts
02-Jun-18 10:25 54.044943 -9.067401 287 34111ft 492kts
02-Jun-18 10:26 54.086724 -9.288951 287 34111ft 489kts
02-Jun-18 10:27 54.127837 -9.509536 287 34110ft 488kts
02-Jun-18 10:28 54.168435 -9.729944 287 34112ft 487kts
02-Jun-18 10:29 54.208704 -9.951194 287 34112ft 486kts
02-Jun-18 10:30 54.248406 -10.171980 287 34112ft 486kts
02-Jun-18 10:31 54.287819 -10.393839 286 34112ft 486kts
02-Jun-18 10:32 54.326669 -10.615228 286 34112ft 486kts
02-Jun-18 10:33 54.365061 -10.836731 286 34112ft 484kts
02-Jun-18 10:34 54.403066 -11.058762 286 34112ft 483kts
02-Jun-18 10:35 54.440465 -11.280024 286 34112ft 482kts
02-Jun-18 10:36 54.477367 -11.501132 286 34112ft 481kts
02-Jun-18 10:37 54.513920 -11.722972 286 34113ft 480kts
02-Jun-18 10:38 54.549652 -11.942650 286 34113ft 480kts
02-Jun-18 10:39 54.585319 -12.164770 286 34113ft 479kts
02-Jun-18 10:40 54.620453 -12.386526 286 34113ft 480kts
02-Jun-18 10:41 54.655214 -12.608856 285 34113ft 480kts
02-Jun-18 10:42 54.689682 -12.832310 285 34113ft 480kts
02-Jun-18 10:43 54.723627 -13.055410 285 34113ft 480kts
02-Jun-18 10:44 54.757154 -13.278825 285 34113ft 480kts
02-Jun-18 10:45 54.790391 -13.503428 285 34102ft 480kts
02-Jun-18 10:46 54.823095 -13.727586 284 34102ft 480kts
02-Jun-18 10:47 54.855359 -13.951920 284 34102ft 480kts
02-Jun-18 10:48 54.887333 -14.177483 284 34103ft 480kts
02-Jun-18 10:49 54.918804 -14.402790 284 34117ft 480kts
02-Jun-18 10:50 54.950580 -14.628570 283 34119ft 481kts
02-Jun-18 10:51 54.980891 -14.856037 283 34121ft 482kts
02-Jun-18 10:52 55.015914 -15.080630 290 34123ft 481kts
02-Jun-18 10:53 55.065182 -15.296225 292 34124ft 481kts
02-Jun-18 10:54 55.113242 -15.514158 291 34126ft 482kts
02-Jun-18 10:55 55.162034 -15.732124 292 34127ft 482kts
02-Jun-18 10:56 55.210144 -15.952009 291 34129ft 483kts
02-Jun-18 10:57 55.257446 -16.172168 291 34131ft 484kts
02-Jun-18 10:58 55.304412 -16.393368 291 34133ft 484kts
02-Jun-18 10:59 55.351143 -16.615881 291 34138ft 485kts
02-Jun-18 11:00 55.397331 -16.838257 291 34140ft 485kts
02-Jun-18 11:01 55.443116 -17.061161 291 34153ft 485kts
02-Jun-18 11:02 55.488710 -17.285634 290 34155ft 485kts
02-Jun-18 11:03 55.533794 -17.510136 290 34152ft 486kts
02-Jun-18 11:04 55.571252 -17.698635 290 34154ft 487kts
02-Jun-18 11:05 55.615684 -17.924611 290 34156ft 487kts
02-Jun-18 11:06 55.659731 -18.151268 290 34154ft 488kts
02-Jun-18 11:07 55.703539 -18.379360 290 34156ft 488kts
02-Jun-18 11:08 55.746450 -18.605468 290 34157ft 487kts
02-Jun-18 11:09 55.789271 -18.833803 290 34159ft 488kts
02-Jun-18 11:10 55.831832 -19.063533 290 34161ft 488kts
02-Jun-18 11:11 55.873883 -19.293308 290 34157ft 489kts
02-Jun-18 11:12 55.916067 -19.523704 291 34160ft 490kts
02-Jun-18 11:13 55.957430 -19.756174 290 34160ft 491kts
02-Jun-18 11:14 55.996954 -19.989493 285 34163ft 494kts
02-Jun-18 11:15 56.010876 -20.235272 274 34163ft 498kts
02-Jun-18 11:16 56.017593 -20.482434 275 34210ft 500kts
02-Jun-18 11:17 56.026349 -20.730223 277 34211ft 501kts
02-Jun-18 11:18 56.035612 -20.979818 276 34212ft 502kts
02-Jun-18 11:19 56.043585 -21.229229 275 34214ft 503kts
02-Jun-18 11:20 56.050986 -21.479496 275 34215ft 502kts
02-Jun-18 11:21 56.057824 -21.728162 275 34217ft 500kts
02-Jun-18 11:22 56.064161 -21.976955 274 34718ft 501kts
02-Jun-18 11:23 56.069949 -22.223769 274 35882ft 499kts
02-Jun-18 11:24 56.075273 -22.471948 274 36220ft 499kts
02-Jun-18 11:25 56.080121 -22.721488 274 36174ft 502kts
02-Jun-18 11:26 56.084471 -22.971260 274 36168ft 503kts
02-Jun-18 11:27 56.088323 -23.221539 273 36173ft 503kts
02-Jun-18 11:28 56.091677 -23.472613 273 36145ft 502kts
02-Jun-18 11:29 56.094506 -23.722130 273 36145ft 501kts
02-Jun-18 11:30 56.096836 -23.972205 272 36145ft 500kts
02-Jun-18 11:31 56.098651 -24.221036 272 36145ft 500kts
02-Jun-18 11:32 56.099970 -24.470548 272 36145ft 502kts
02-Jun-18 11:33 56.100789 -24.721978 272 36145ft 505kts
02-Jun-18 11:34 56.101099 -24.973984 272 36145ft 508kts
02-Jun-18 11:35 56.100891 -25.227233 272 36145ft 510kts
02-Jun-18 11:36 56.100157 -25.482161 271 36144ft 511kts
02-Jun-18 11:37 56.098910 -25.736368 271 36144ft 510kts
02-Jun-18 11:38 56.097149 -25.989040 271 36144ft 511kts
02-Jun-18 11:39 56.094847 -26.244159 271 36143ft 511kts
02-Jun-18 11:40 56.092026 -26.498783 271 36133ft 512kts
02-Jun-18 11:41 56.088657 -26.754936 271 36133ft 514kts
02-Jun-18 11:42 56.084748 -27.011739 270 36132ft 518kts
02-Jun-18 11:43 56.080282 -27.269750 270 36171ft 520kts
02-Jun-18 11:44 56.075236 -27.529843 270 36171ft 523kts
02-Jun-18 11:45 56.069640 -27.789994 270 36170ft 524kts
02-Jun-18 11:46 56.063486 -28.050540 269 36169ft 525kts
02-Jun-18 11:47 56.056757 -28.312019 269 36169ft 525kts
02-Jun-18 11:48 56.049502 -28.572492 269 36168ft 525kts
02-Jun-18 11:49 56.041702 -28.832792 268 36167ft 524kts
02-Jun-18 11:50 56.033328 -29.093848 268 36166ft 525kts
02-Jun-18 11:51 56.024419 -29.354412 268 36165ft 526kts
02-Jun-18 11:52 56.015640 -29.616406 268 36164ft 528kts
02-Jun-18 11:53 56.005068 -29.876194 267 36164ft 529kts
02-Jun-18 11:54 55.982601 -30.135541 255 36163ft 532kts
02-Jun-18 11:55 55.940300 -30.389018 254 36163ft 531kts
02-Jun-18 11:56 55.899923 -30.640702 255 36162ft 526kts
02-Jun-18 11:57 55.861756 -30.890934 255 36161ft 523kts
02-Jun-18 11:58 55.822135 -31.139446 254 36160ft 520kts
02-Jun-18 11:59 55.782111 -31.385911 254 36070ft 519kts
02-Jun-18 12:00 55.741533 -31.632139 253 36068ft 521kts
02-Jun-18 12:01 55.700195 -31.879439 253 36065ft 522kts
02-Jun-18 12:02 55.658435 -32.125766 253 36063ft 522kts
02-Jun-18 12:03 55.616182 -32.371584 253 36061ft 520kts
02-Jun-18 12:04 55.573760 -32.614995 252 36060ft 517kts
02-Jun-18 12:05 55.531121 -32.856477 252 36057ft 514kts
02-Jun-18 12:06 55.488095 -33.096913 252 36055ft 511kts
02-Jun-18 12:07 55.444885 -33.335246 251 36053ft 511kts
02-Jun-18 12:08 55.401539 -33.571286 251 36050ft 510kts
02-Jun-18 12:09 55.357357 -33.808854 251 36048ft 511kts
02-Jun-18 12:10 55.312815 -34.045395 250 36046ft 509kts
02-Jun-18 12:11 55.268022 -34.280272 250 36044ft 507kts
02-Jun-18 12:12 55.222802 -34.514542 249 36041ft 505kts
02-Jun-18 12:13 55.177472 -34.746550 249 36038ft 503kts
02-Jun-18 12:14 55.131857 -34.977257 249 36036ft 502kts
02-Jun-18 12:15 55.085810 -35.207414 248 36034ft 500kts
02-Jun-18 12:16 55.039240 -35.437487 248 36032ft 499kts
02-Jun-18 12:17 54.992708 -35.664734 248 36029ft 498kts
02-Jun-18 12:18 54.945826 -35.891106 248 36027ft 497kts
02-Jun-18 12:19 54.898513 -36.117038 247 36023ft 494kts
02-Jun-18 12:20 54.851274 -36.340064 247 36021ft 492kts
02-Jun-18 12:21 54.803712 -36.562195 247 36018ft 491kts
02-Jun-18 12:22 54.755698 -36.784027 246 36042ft 490kts
02-Jun-18 12:23 54.707537 -37.004163 246 36044ft 489kts
02-Jun-18 12:24 54.659099 -37.223230 246 35994ft 488kts
02-Jun-18 12:25 54.610324 -37.441518 246 35985ft 485kts
02-Jun-18 12:26 54.561508 -37.657742 245 35984ft 483kts
02-Jun-18 12:27 54.512319 -37.873394 245 35983ft 482kts
02-Jun-18 12:28 54.463064 -38.087166 245 35982ft 480kts
02-Jun-18 12:29 54.413551 -38.299912 245 35981ft 480kts
02-Jun-18 12:30 54.363476 -38.512944 245 35979ft 480kts
02-Jun-18 12:31 54.313167 -38.724876 244 35978ft 481kts
02-Jun-18 12:32 54.262429 -38.936531 243 35976ft 481kts
02-Jun-18 12:33 54.211172 -39.148295 243 35975ft 481kts
02-Jun-18 12:34 54.159720 -39.358807 243 35973ft 481kts
02-Jun-18 12:35 54.108361 -39.569180 243 35970ft 481kts
02-Jun-18 12:36 54.055919 -39.779008 242 35970ft 480kts
02-Jun-18 12:37 54.003382 -39.987609 244 35968ft 481kts
02-Jun-18 12:38 53.966687 -40.206593 252 35967ft 486kts
02-Jun-18 12:39 53.933350 -40.428483 251 35965ft 486kts
02-Jun-18 12:40 53.899117 -40.649923 251 35963ft 487kts
02-Jun-18 12:41 53.865020 -40.872528 250 35961ft 487kts
02-Jun-18 12:42 53.829770 -41.094211 249 35959ft 488kts
02-Jun-18 12:43 53.793989 -41.315627 249 35957ft 488kts
02-Jun-18 12:44 53.757647 -41.537488 249 35955ft 488kts
02-Jun-18 12:45 53.721022 -41.758197 249 35953ft 488kts
02-Jun-18 12:46 53.684002 -41.978460 249 35950ft 488kts
02-Jun-18 12:47 53.646423 -42.199246 248 35948ft 489kts
02-Jun-18 12:48 53.608509 -42.419233 248 35945ft 490kts
02-Jun-18 12:49 53.569976 -42.640048 248 35943ft 491kts
02-Jun-18 12:50 53.531055 -42.860354 248 35940ft 493kts
02-Jun-18 12:51 53.491611 -43.080918 248 35937ft 494kts
02-Jun-18 12:52 53.451565 -43.302163 247 35934ft 494kts
02-Jun-18 12:53 53.411496 -43.520880 247 35932ft 494kts
02-Jun-18 12:54 53.370743 -43.740740 247 35928ft 495kts
02-Jun-18 12:55 53.329420 -43.961045 247 35925ft 495kts
02-Jun-18 12:56 53.287791 -44.180402 247 35922ft 496kts
02-Jun-18 12:57 53.245694 -44.399670 247 35919ft 496kts
02-Jun-18 12:58 53.203034 -44.619346 247 35915ft 497kts
02-Jun-18 12:59 53.160055 -44.838149 247 35911ft 498kts
02-Jun-18 13:00 53.116479 -45.057501 246 35908ft 498kts
02-Jun-18 13:01 53.072638 -45.275733 246 35904ft 498kts
02-Jun-18 13:02 53.028369 -45.493636 246 35943ft 498kts
02-Jun-18 13:03 52.983524 -45.711982 246 35980ft 498kts
02-Jun-18 13:04 52.938424 -45.929178 246 35979ft 498kts
02-Jun-18 13:05 52.892945 -46.145824 246 35977ft 498kts
02-Jun-18 13:06 52.846897 -46.362874 246 35976ft 499kts
02-Jun-18 13:07 52.800633 -46.578613 246 35975ft 498kts
02-Jun-18 13:08 52.753995 -46.793816 246 35973ft 498kts
02-Jun-18 13:09 52.706898 -47.008878 246 35971ft 497kts
02-Jun-18 13:10 52.659543 -47.222894 246 35970ft 497kts
02-Jun-18 13:11 52.619830 -47.400686 246 35969ft 497kts
02-Jun-18 13:12 52.571660 -47.614341 246 35968ft 497kts
02-Jun-18 13:13 52.523266 -47.826829 246 35935ft 497kts
02-Jun-18 13:14 52.474333 -48.039514 247 35934ft 497kts
02-Jun-18 13:15 52.425189 -48.251042 247 35934ft 497kts
02-Jun-18 13:16 52.375707 -48.461921 246 35933ft 496kts
02-Jun-18 13:17 52.325729 -48.672829 247 35933ft 496kts
02-Jun-18 13:18 52.275572 -48.882450 247 35932ft 496kts
02-Jun-18 13:19 52.225018 -49.091700 247 35933ft 496kts
02-Jun-18 13:20 52.173939 -49.301141 247 35932ft 496kts
02-Jun-18 13:21 52.122620 -49.509601 248 35932ft 496kts
02-Jun-18 13:22 52.071355 -49.717937 247 35933ft 497kts
02-Jun-18 13:23 52.018665 -49.926263 247 35933ft 498kts
02-Jun-18 13:24 51.967309 -50.134494 248 35934ft 498kts
02-Jun-18 13:25 51.916233 -50.343424 248 35935ft 497kts
02-Jun-18 13:26 51.865018 -50.551151 249 35930ft 497kts
02-Jun-18 13:27 51.814821 -50.759030 249 35931ft 496kts
02-Jun-18 13:28 51.763293 -50.966465 250 35932ft 496kts
02-Jun-18 13:29 51.711562 -51.172355 250 35934ft 495kts
02-Jun-18 13:30 51.659555 -51.377401 251 35949ft 494kts
02-Jun-18 13:31 51.607099 -51.582334 251 35948ft 494kts
02-Jun-18 13:32 51.554500 -51.785971 251 35948ft 493kts
02-Jun-18 13:33 51.501548 -51.989143 251 35948ft 494kts
02-Jun-18 13:34 51.448202 -52.192008 251 35947ft 491kts
02-Jun-18 13:35 51.394899 -52.392931 250 35947ft 490kts
02-Jun-18 13:36 51.341393 -52.592885 250 35947ft 488kts
02-Jun-18 13:37 51.287734 -52.792475 251 35911ft 486kts
02-Jun-18 13:38 51.234107 -52.990212 249 35904ft 485kts
02-Jun-18 13:39 51.179743 -53.186901 249 35905ft 483kts
02-Jun-18 13:40 51.125225 -53.381662 249 35882ft 481kts
02-Jun-18 13:41 51.070198 -53.575063 248 35888ft 480kts
02-Jun-18 13:42 51.014972 -53.768350 249 35891ft 478kts
02-Jun-18 13:43 50.961023 -53.960993 248 35895ft 478kts
02-Jun-18 13:44 50.906324 -54.151583 248 35900ft 471kts
02-Jun-18 13:45 50.851609 -54.340158 248 35904ft 470kts
02-Jun-18 13:46 50.796814 -54.527465 248 35907ft 469kts
02-Jun-18 13:47 50.741670 -54.714485 247 35917ft 468kts
02-Jun-18 13:48 50.686595 -54.899835 247 35918ft 466kts
02-Jun-18 13:49 50.631440 -55.084036 247 35919ft 464kts
02-Jun-18 13:50 50.576110 -55.267426 247 35919ft 461kts
02-Jun-18 13:51 50.520986 -55.448769 247 35918ft 459kts
02-Jun-18 13:52 50.465666 -55.629412 247 35917ft 457kts
02-Jun-18 13:53 50.410423 -55.808479 246 35914ft 456kts
02-Jun-18 13:54 50.354857 -55.987277 246 35927ft 455kts
02-Jun-18 13:55 50.299377 -56.164531 246 35923ft 453kts
02-Jun-18 13:56 50.243761 -56.340940 246 35920ft 453kts
02-Jun-18 13:57 50.187763 -56.517305 246 35916ft 452kts
02-Jun-18 13:58 50.131781 -56.692365 245 35913ft 451kts
02-Jun-18 13:59 50.075748 -56.866370 245 35908ft 449kts
02-Jun-18 14:00 50.019565 -57.039631 244 35905ft 447kts
02-Jun-18 14:01 49.963588 -57.211057 245 35897ft 444kts
02-Jun-18 14:02 49.907489 -57.381712 244 35895ft 442kts
02-Jun-18 14:03 49.851558 -57.550703 244 35882ft 440kts
02-Jun-18 14:04 49.795718 -57.718307 243 35881ft 434kts
02-Jun-18 14:05 49.739542 -57.885802 243 35878ft 440kts
02-Jun-18 14:06 49.683123 -58.052882 243 35875ft 438kts
02-Jun-18 14:07 49.626591 -58.219243 243 35871ft 438kts
02-Jun-18 14:08 49.569689 -58.385614 242 35867ft 437kts
02-Jun-18 14:09 49.512861 -58.550676 242 35862ft 436kts
02-Jun-18 14:10 49.455687 -58.715643 242 35834ft 435kts
02-Jun-18 14:11 49.398606 -58.879295 242 35851ft 435kts
02-Jun-18 14:12 49.341329 -59.042481 241 35850ft 435kts
02-Jun-18 14:13 49.283751 -59.205495 241 35858ft 433kts
02-Jun-18 14:14 49.226195 -59.367422 241 35860ft 433kts
02-Jun-18 14:15 49.168573 -59.528541 241 35864ft 432kts
02-Jun-18 14:16 49.110516 -59.689847 240 35869ft 432kts
02-Jun-18 14:17 49.052550 -59.849916 240 35874ft 431kts
02-Jun-18 14:18 48.994205 -60.010047 240 35879ft 431kts
02-Jun-18 14:19 48.935724 -60.169583 240 35886ft 433kts
02-Jun-18 14:20 48.876930 -60.328975 239 35892ft 433kts
02-Jun-18 14:21 48.817725 -60.488514 239 35898ft 433kts
02-Jun-18 14:22 48.758517 -60.647103 239 35903ft 433kts
02-Jun-18 14:23 48.699056 -60.805401 239 35907ft 433kts
02-Jun-18 14:24 48.639129 -60.964005 239 35910ft 434kts
02-Jun-18 14:25 48.579027 -61.122113 238 35911ft 434kts
02-Jun-18 14:26 48.518684 -61.279904 238 35896ft 434kts
02-Jun-18 14:27 48.457781 -61.438216 238 35896ft 436kts
02-Jun-18 14:28 48.396826 -61.595723 238 35896ft 436kts
02-Jun-18 14:29 48.335331 -61.753681 238 35895ft 437kts
02-Jun-18 14:30 48.273797 -61.910814 238 35938ft 437kts
02-Jun-18 14:31 48.211903 -62.067940 238 35938ft 438kts
02-Jun-18 14:32 48.149583 -62.225221 238 35936ft 438kts
02-Jun-18 14:33 48.087260 -62.381590 237 35936ft 438kts
02-Jun-18 14:34 48.024707 -62.537627 237 35937ft 438kts
02-Jun-18 14:35 47.961655 -62.693979 238 35939ft 438kts
02-Jun-18 14:36 47.898699 -62.849221 238 35943ft 438kts
02-Jun-18 14:37 47.835197 -63.004900 238 35946ft 439kts
02-Jun-18 14:38 47.771590 -63.159943 238 35968ft 440kts
02-Jun-18 14:39 47.707596 -63.315037 238 35990ft 441kts
02-Jun-18 14:40 47.643055 -63.470567 238 35986ft 442kts
02-Jun-18 14:41 47.578341 -63.625621 238 35992ft 443kts
02-Jun-18 14:42 47.513184 -63.780850 238 35991ft 443kts
02-Jun-18 14:43 47.448035 -63.935180 238 35986ft 443kts
02-Jun-18 14:44 47.382624 -64.089245 238 35958ft 444kts
02-Jun-18 14:45 47.316507 -64.244121 238 35957ft 445kts
02-Jun-18 14:46 47.250453 -64.397972 238 35978ft 445kts
02-Jun-18 14:47 47.184171 -64.551485 239 36009ft 444kts
02-Jun-18 14:48 47.117466 -64.705120 239 36022ft 445kts
02-Jun-18 14:49 47.050718 -64.857998 239 36024ft 445kts
02-Jun-18 14:50 46.983510 -65.011076 239 36021ft 446kts
02-Jun-18 14:51 46.916297 -65.163326 239 36018ft 446kts
02-Jun-18 14:52 46.848790 -65.315399 239 36014ft 446kts
02-Jun-18 14:53 46.780810 -65.467694 239 36010ft 447kts
02-Jun-18 14:54 46.712880 -65.619052 239 36005ft 446kts
02-Jun-18 14:55 46.644825 -65.769865 240 36000ft 445kts
02-Jun-18 14:56 46.576473 -65.920519 240 35995ft 445kts
02-Jun-18 14:57 46.508218 -66.070133 240 35989ft 446kts
02-Jun-18 14:58 46.439252 -66.220520 240 35982ft 446kts
02-Jun-18 14:59 46.370344 -66.369967 240 35976ft 446kts
02-Jun-18 15:00 46.301171 -66.519188 240 35972ft 447kts
02-Jun-18 15:01 46.231489 -66.668709 240 35978ft 448kts
02-Jun-18 15:02 46.161616 -66.817843 240 35978ft 449kts
02-Jun-18 15:03 46.091363 -66.966995 240 35974ft 451kts
02-Jun-18 15:04 46.020488 -67.116672 240 35978ft 452kts
02-Jun-18 15:05 45.949863 -67.265041 240 35983ft 446kts
02-Jun-18 15:06 45.879585 -67.411980 240 35986ft 448kts
02-Jun-18 15:07 45.808805 -67.559950 240 35983ft 450kts
02-Jun-18 15:08 45.737260 -67.707269 240 35985ft 451kts
02-Jun-18 15:09 45.656588 -67.846912 229 35997ft 462kts
02-Jun-18 15:10 45.560392 -67.968815 227 35989ft 461kts
02-Jun-18 15:11 45.465037 -68.091067 228 36017ft 462kts
02-Jun-18 15:12 45.370359 -68.214446 228 36018ft 459kts
02-Jun-18 15:13 45.276159 -68.336252 228 36014ft 458kts
02-Jun-18 15:14 45.182032 -68.457122 227 36001ft 456kts
02-Jun-18 15:15 45.087698 -68.577655 227 35992ft 455kts
02-Jun-18 15:16 44.993790 -68.697082 227 35984ft 454kts
02-Jun-18 15:17 44.899995 -68.815821 227 35981ft 453kts
02-Jun-18 15:18 44.805820 -68.934496 227 36055ft 456kts
02-Jun-18 15:19 44.711820 -69.052409 227 37395ft 451kts
02-Jun-18 15:20 44.633694 -69.150004 227 37969ft 449kts
02-Jun-18 15:21 44.540432 -69.266031 227 37955ft 448kts
02-Jun-18 15:22 44.447219 -69.381480 226 37950ft 447kts
02-Jun-18 15:23 44.353801 -69.496673 226 37952ft 446kts
02-Jun-18 15:24 44.260768 -69.610888 226 37962ft 445kts
02-Jun-18 15:25 44.167780 -69.724544 226 37959ft 444kts
02-Jun-18 15:26 44.074517 -69.838043 226 37955ft 444kts
02-Jun-18 15:27 43.981594 -69.950639 226 37950ft 444kts
02-Jun-18 15:28 43.888549 -70.062900 226 37943ft 444kts
02-Jun-18 15:29 43.795094 -70.175172 226 37933ft 444kts
02-Jun-18 15:30 43.701658 -70.286944 225 37922ft 444kts
02-Jun-18 15:31 43.607989 -70.399071 225 37920ft 445kts
02-Jun-18 15:32 43.514126 -70.510085 225 37925ft 445kts
02-Jun-18 15:33 43.421210 -70.622093 230 37929ft 441kts
02-Jun-18 15:34 43.343680 -70.752140 235 37928ft 439kts
02-Jun-18 15:35 43.267924 -70.883555 234 37911ft 439kts
02-Jun-18 15:36 43.191418 -71.014118 234 37913ft 440kts
02-Jun-18 15:37 43.114796 -71.145220 234 37911ft 440kts
02-Jun-18 15:38 43.037875 -71.275310 234 37905ft 440kts
02-Jun-18 15:39 42.960448 -71.405543 233 37892ft 441kts
02-Jun-18 15:40 42.883114 -71.535028 233 37894ft 440kts
02-Jun-18 15:41 42.805754 -71.663988 233 37899ft 440kts
02-Jun-18 15:42 42.727980 -71.793073 233 37918ft 439kts
02-Jun-18 15:43 42.650437 -71.921217 233 37922ft 439kts
02-Jun-18 15:44 42.572823 -72.048927 232 37922ft 439kts
02-Jun-18 15:45 42.494704 -72.176911 232 37921ft 439kts
02-Jun-18 15:46 42.416806 -72.303993 232 37915ft 439kts
02-Jun-18 15:47 42.338719 -72.431462 232 37899ft 439kts
02-Jun-18 15:48 42.260418 -72.557944 232 37884ft 440kts
02-Jun-18 15:49 42.181757 -72.684264 232 37888ft 440kts
02-Jun-18 15:50 42.105390 -72.813328 234 37889ft 439kts
02-Jun-18 15:51 42.029752 -72.942441 233 37890ft 440kts
02-Jun-18 15:52 41.953778 -73.071387 233 37894ft 440kts
02-Jun-18 15:53 41.877557 -73.200426 233 37901ft 440kts
02-Jun-18 15:54 41.801274 -73.328571 233 37913ft 440kts
02-Jun-18 15:55 41.724888 -73.456455 233 37911ft 440kts
02-Jun-18 15:56 41.648666 -73.584858 233 37898ft 440kts
02-Jun-18 15:57 41.572167 -73.711814 233 37897ft 439kts
02-Jun-18 15:58 41.494440 -73.838193 229 37898ft 441kts
02-Jun-18 15:59 41.407312 -73.953468 227 37905ft 441kts
02-Jun-18 16:00 41.320818 -74.069778 227 37904ft 443kts
02-Jun-18 16:01 41.233510 -74.186261 227 37894ft 444kts
02-Jun-18 16:02 41.157159 -74.313688 239 37887ft 443kts
02-Jun-18 16:03 41.093794 -74.453270 239 37891ft 444kts
02-Jun-18 16:04 41.029561 -74.593556 239 37897ft 444kts
02-Jun-18 16:05 40.964539 -74.732788 239 37899ft 445kts
02-Jun-18 16:06 40.899069 -74.872530 238 37892ft 446kts
02-Jun-18 16:07 40.885840 -74.900633 238 37890ft 446kts
02-Jun-18 16:08 40.885840 -74.900633 238 37890ft 446kts
02-Jun-18 16:09 40.885840 -74.900633 238 37890ft 446kts
02-Jun-18 16:10 40.885840 -74.900633 238 37890ft 446kts
02-Jun-18 16:11 40.885840 -74.900633 238 37890ft 446kts
02-Jun-18 16:12 40.885840 -74.900633 238 37890ft 446kts
02-Jun-18 16:13 40.885840 -74.900633 238 37890ft 446kts
02-Jun-18 16:14 40.885840 -74.900633 238 37890ft 446kts
02-Jun-18 16:15 40.885840 -74.900633 238 37890ft 446kts
02-Jun-18 16:16 40.885840 -74.900633 238 37890ft 446kts
02-Jun-18 16:17 40.885840 -74.900633 238 37890ft 446kts
02-Jun-18 16:18 40.885840 -74.900633 238 37890ft 446kts
02-Jun-18 16:19 40.885840 -74.900633 238 37890ft 446kts
02-Jun-18 16:20 40.885840 -74.900633 238 37890ft 446kts
02-Jun-18 16:21 40.885840 -74.900633 238 37890ft 446kts
02-Jun-18 16:22 40.885840 -74.900633 238 37890ft 446kts
02-Jun-18 16:23 40.885840 -74.900633 238 37890ft 446kts
02-Jun-18 16:24 40.885840 -74.900633 238 37890ft 446kts
02-Jun-18 16:25 40.885840 -74.900633 238 37890ft 446kts
02-Jun-18 16:26 40.885840 -74.900633 238 37890ft 446kts
02-Jun-18 16:27 40.885840 -74.900633 238 37890ft 446kts
02-Jun-18 16:28 40.885840 -74.900633 238 37890ft 446kts
02-Jun-18 16:29 40.885840 -74.900633 238 37890ft 446kts
02-Jun-18 16:30 40.885840 -74.900633 238 37890ft 446kts
02-Jun-18 16:31 40.885840 -74.900633 238 37890ft 446kts
02-Jun-18 16:32 40.885840 -74.900633 238 37890ft 446kts
02-Jun-18 16:33 40.885840 -74.900633 238 37890ft 446kts
02-Jun-18 16:34 40.885840 -74.900633 238 37890ft 446kts
02-Jun-18 16:35 40.885840 -74.900633 238 37890ft 446kts
02-Jun-18 16:36 40.885840 -74.900633 238 37890ft 446kts
02-Jun-18 16:37 40.885840 -74.900633 238 37890ft 446kts
02-Jun-18 16:38 40.885840 -74.900633 238 37890ft 446kts
02-Jun-18 16:39 40.885840 -74.900633 238 37890ft 446kts
02-Jun-18 16:40 40.885840 -74.900633 238 37890ft 446kts
02-Jun-18 16:41 40.885840 -74.900633 238 37890ft 446kts
02-Jun-18 16:42 40.885840 -74.900633 238 37890ft 446kts
02-Jun-18 16:43 40.885840 -74.900633 238 37890ft 446kts
02-Jun-18 16:44 40.885840 -74.900633 238 37890ft 446kts
02-Jun-18 16:45 40.885840 -74.900633 238 37890ft 446kts
02-Jun-18 16:46 40.885840 -74.900633 238 37890ft 446kts
02-Jun-18 16:47 40.885840 -74.900633 238 37890ft 446kts
02-Jun-18 16:48 40.885840 -74.900633 238 37890ft 446kts
02-Jun-18 16:49 40.885840 -74.900633 238 37890ft 446kts
02-Jun-18 16:50 40.885840 -74.900633 238 37890ft 446kts
02-Jun-18 16:51 40.885840 -74.900633 238 37890ft 446kts
02-Jun-18 16:52 40.885840 -74.900633 238 37890ft 446kts
02-Jun-18 16:53 40.885840 -74.900633 238 37890ft 446kts
02-Jun-18 16:54 40.885840 -74.900633 238 37890ft 446kts
02-Jun-18 16:55 40.885840 -74.900633 238 37890ft 446kts
02-Jun-18 16:56 40.885840 -74.900633 238 37890ft 446kts
02-Jun-18 16:57 40.885840 -74.900633 238 37890ft 446kts
02-Jun-18 16:58 40.885840 -74.900633 238 37890ft 446kts
02-Jun-18 16:59 40.885840 -74.900633 238 37890ft 446kts
02-Jun-18 17:00 40.885840 -74.900633 238 37890ft 446kts
02-Jun-18 17:01 40.885840 -74.900633 238 37890ft 446kts
02-Jun-18 17:02 40.885840 -74.900633 238 37890ft 446kts
02-Jun-18 17:03 40.885840 -74.900633 238 37890ft 446kts
02-Jun-18 17:04 40.885840 -74.900633 238 37890ft 446kts
02-Jun-18 17:05 40.885840 -74.900633 238 37890ft 446kts
02-Jun-18 17:06 40.885840 -74.900633 238 37890ft 446kts
02-Jun-18 17:07 40.885840 -74.900633 238 37890ft 446kts
02-Jun-18 17:08 40.885840 -74.900633 238 37890ft 446kts
02-Jun-18 17:09 40.885840 -74.900633 238 37890ft 446kts
02-Jun-18 17:10 40.885840 -74.900633 238 37890ft 446kts
02-Jun-18 17:11 40.885840 -74.900633 238 37890ft 446kts
02-Jun-18 17:12 40.885840 -74.900633 238 37890ft 446kts
02-Jun-18 17:13 40.885840 -74.900633 238 37890ft 446kts
02-Jun-18 17:14 40.885840 -74.900633 238 37890ft 446kts
02-Jun-18 17:15 40.885840 -74.900633 238 37890ft 446kts
02-Jun-18 17:16 40.885840 -74.900633 238 37890ft 446kts
02-Jun-18 17:17 40.885840 -74.900633 238 37890ft 446kts
02-Jun-18 17:18 40.885840 -74.900633 238 37890ft 446kts
02-Jun-18 17:19 40.885840 -74.900633 238 37890ft 446kts
02-Jun-18 17:20 40.885840 -74.900633 238 37890ft 446kts
02-Jun-18 17:21 40.885840 -74.900633 238 37890ft 446kts
02-Jun-18 17:22 40.885840 -74.900633 238 37890ft 446kts
02-Jun-18 17:23 40.885840 -74.900633 238 37890ft 446kts
02-Jun-18 17:24 40.885840 -74.900633 238 37890ft 446kts
02-Jun-18 17:25 40.885840 -74.900633 238 37890ft 446kts
02-Jun-18 17:26 40.885840 -74.900633 238 37890ft 446kts
02-Jun-18 17:27 40.885840 -74.900633 238 37890ft 446kts
02-Jun-18 17:28 40.885840 -74.900633 238 37890ft 446kts
02-Jun-18 17:29 40.885840 -74.900633 238 37890ft 446kts
02-Jun-18 17:30 40.885840 -74.900633 238 37890ft 446kts
02-Jun-18 17:31 40.885840 -74.900633 238 37890ft 446kts
02-Jun-18 17:32 40.885840 -74.900633 238 37890ft 446kts
02-Jun-18 17:33 40.885840 -74.900633 238 37890ft 446kts
02-Jun-18 17:34 40.885840 -74.900633 238 37890ft 446kts
02-Jun-18 17:35 40.885840 -74.900633 238 37890ft 446kts
02-Jun-18 17:36 40.885840 -74.900633 238 37890ft 446kts
02-Jun-18 17:37 40.885840 -74.900633 238 37890ft 446kts
02-Jun-18 17:38 40.885840 -74.900633 238 37890ft 446kts
02-Jun-18 17:39 40.885840 -74.900633 238 37890ft 446kts
02-Jun-18 17:40 40.885840 -74.900633 238 37890ft 446kts
02-Jun-18 17:41 40.885840 -74.900633 238 37890ft 446kts
02-Jun-18 17:42 40.885840 -74.900633 238 37890ft 446kts
02-Jun-18 17:43 40.885840 -74.900633 238 37890ft 446kts
02-Jun-18 17:44 40.885840 -74.900633 238 37890ft 446kts
02-Jun-18 17:45 40.885840 -74.900633 238 37890ft 446kts
02-Jun-18 17:46 40.885840 -74.900633 238 37890ft 446kts
02-Jun-18 17:47 40.885840 -74.900633 238 37890ft 446kts
02-Jun-18 17:48 40.885840 -74.900633 238 37890ft 446kts
02-Jun-18 17:49 40.885840 -74.900633 238 37890ft 446kts
02-Jun-18 17:50 40.885840 -74.900633 238 37890ft 446kts
02-Jun-18 17:51 40.885840 -74.900633 238 37890ft 446kts
02-Jun-18 17:52 40.885840 -74.900633 238 37890ft 446kts
02-Jun-18 17:53 40.885840 -74.900633 238 37890ft 446kts
02-Jun-18 17:54 40.885840 -74.900633 238 37890ft 446kts
02-Jun-18 17:55 40.885840 -74.900633 238 37890ft 446kts
02-Jun-18 17:56 40.885840 -74.900633 238 37890ft 446kts
02-Jun-18 17:57 40.885840 -74.900633 238 37890ft 446kts
02-Jun-18 17:58 40.885840 -74.900633 238 37890ft 446kts
02-Jun-18 17:59 40.885840 -74.900633 238 37890ft 446kts
02-Jun-18 18:00 40.885840 -74.900633 238 37890ft 446kts
02-Jun-18 18:01 40.885840 -74.900633 238 37890ft 446kts
02-Jun-18 18:02 40.885840 -74.900633 238 37890ft 446kts
02-Jun-18 18:03 40.885840 -74.900633 238 37890ft 446kts
02-Jun-18 18:04 40.885840 -74.900633 238 37890ft 446kts
02-Jun-18 18:05 40.885840 -74.900633 238 37890ft 446kts
02-Jun-18 18:06 40.885840 -74.900633 238 37890ft 446kts
02-Jun-18 18:07 40.885840 -74.900633 238 37890ft 446kts
02-Jun-18 18:08 40.885840 -74.900633 238 37890ft 446kts
02-Jun-18 18:09 40.885840 -74.900633 238 37890ft 446kts
02-Jun-18 18:10 40.885840 -74.900633 238 37890ft 446kts
02-Jun-18 18:11 40.885840 -74.900633 238 37890ft 446kts
02-Jun-18 18:12 40.885840 -74.900633 238 37890ft 446kts
02-Jun-18 18:13 40.885840 -74.900633 238 37890ft 446kts
02-Jun-18 18:14 40.885840 -74.900633 238 37890ft 446kts
02-Jun-18 18:15 40.885840 -74.900633 238 37890ft 446kts
02-Jun-18 18:16 40.885840 -74.900633 238 37890ft 446kts
02-Jun-18 18:17 40.885840 -74.900633 238 37890ft 446kts
02-Jun-18 18:18 40.885840 -74.900633 238 37890ft 446kts
02-Jun-18 18:19 40.885840 -74.900633 238 37890ft 446kts
02-Jun-18 18:20 40.885840 -74.900633 238 37890ft 446kts
02-Jun-18 18:21 40.885840 -74.900633 238 37890ft 446kts
02-Jun-18 18:22 40.885840 -74.900633 238 37890ft 446kts
02-Jun-18 18:23 40.885840 -74.900633 238 37890ft 446kts
02-Jun-18 18:24 40.885840 -74.900633 238 37890ft 446kts
02-Jun-18 18:25 40.885840 -74.900633 238 37890ft 446kts
02-Jun-18 18:26 40.885840 -74.900633 238 37890ft 446kts
02-Jun-18 18:27 40.885840 -74.900633 238 37890ft 446kts
02-Jun-18 18:28 40.885840 -74.900633 238 37890ft 446kts
02-Jun-18 18:29 40.885840 -74.900633 238 37890ft 446kts
02-Jun-18 18:30 40.885840 -74.900633 238 37890ft 446kts
02-Jun-18 18:31 40.885840 -74.900633 238 37890ft 446kts
02-Jun-18 18:32 40.885840 -74.900633 238 37890ft 446kts
02-Jun-18 18:33 40.885840 -74.900633 238 37890ft 446kts
02-Jun-18 18:34 40.885840 -74.900633 238 37890ft 446kts
02-Jun-18 18:35 40.885840 -74.900633 238 37890ft 446kts
02-Jun-18 18:36 40.885840 -74.900633 238 37890ft 446kts
02-Jun-18 18:37 40.885840 -74.900633 238 37890ft 446kts
02-Jun-18 18:38 40.885840 -74.900633 238 37890ft 446kts
02-Jun-18 18:39 40.885840 -74.900633 238 37890ft 446kts
02-Jun-18 18:40 40.885840 -74.900633 238 37890ft 446kts
02-Jun-18 18:41 40.885840 -74.900633 238 37890ft 446kts
02-Jun-18 18:42 40.885840 -74.900633 238 37890ft 446kts
02-Jun-18 18:43 40.885840 -74.900633 238 37890ft 446kts
02-Jun-18 18:44 40.885840 -74.900633 238 37890ft 446kts
02-Jun-18 18:45 40.885840 -74.900633 238 37890ft 446kts
02-Jun-18 18:46 40.885840 -74.900633 238 37890ft 446kts
02-Jun-18 18:47 40.885840 -74.900633 238 37890ft 446kts
02-Jun-18 18:48 40.885840 -74.900633 238 37890ft 446kts
02-Jun-18 18:49 40.885840 -74.900633 238 37890ft 446kts
02-Jun-18 18:50 40.885840 -74.900633 238 37890ft 446kts
02-Jun-18 18:51 40.885840 -74.900633 238 37890ft 446kts
02-Jun-18 18:52 40.885840 -74.900633 238 37890ft 446kts
02-Jun-18 18:53 40.885840 -74.900633 238 37890ft 446kts
02-Jun-18 18:54 40.885840 -74.900633 238 37890ft 446kts
02-Jun-18 18:55 40.885840 -74.900633 238 37890ft 446kts
02-Jun-18 18:56 40.885840 -74.900633 238 37890ft 446kts
02-Jun-18 18:57 40.885840 -74.900633 238 37890ft 446kts
02-Jun-18 18:58 40.885840 -74.900633 238 37890ft 446kts
02-Jun-18 18:59 40.885840 -74.900633 238 37890ft 446kts
02-Jun-18 19:00 40.885840 -74.900633 238 37890ft 446kts
02-Jun-18 19:01 40.885840 -74.900633 238 37890ft 446kts
02-Jun-18 19:02 40.885840 -74.900633 238 37890ft 446kts
02-Jun-18 19:03 40.885840 -74.900633 238 37890ft 446kts
02-Jun-18 19:04 40.885840 -74.900633 238 37890ft 446kts
02-Jun-18 19:05 40.885840 -74.900633 238 37890ft 446kts
02-Jun-18 19:06 40.885840 -74.900633 238 37890ft 446kts
02-Jun-18 19:07 40.885840 -74.900633 238 37890ft 446kts
02-Jun-18 19:08 40.885840 -74.900633 238 37890ft 446kts
02-Jun-18 19:09 40.885840 -74.900633 238 37890ft 446kts
02-Jun-18 19:10 40.885840 -74.900633 238 37890ft 446kts
02-Jun-18 19:11 40.885840 -74.900633 238 37890ft 446kts
02-Jun-18 19:12 40.885840 -74.900633 238 37890ft 446kts
02-Jun-18 19:13 40.885840 -74.900633 238 37890ft 446kts
02-Jun-18 19:14 40.885840 -74.900633 238 37890ft 446kts
02-Jun-18 19:15 40.885840 -74.900633 238 37890ft 446kts
02-Jun-18 19:16 40.885840 -74.900633 238 37890ft 446kts
02-Jun-18 19:17 40.885840 -74.900633 238 37890ft 446kts
02-Jun-18 19:18 40.885840 -74.900633 238 37890ft 446kts
02-Jun-18 19:19 40.885840 -74.900633 238 37890ft 446kts
02-Jun-18 19:20 40.885840 -74.900633 238 37890ft 446kts
02-Jun-18 19:21 40.885840 -74.900633 238 37890ft 446kts
02-Jun-18 19:22 40.885840 -74.900633 238 37890ft 446kts
02-Jun-18 19:23 40.885840 -74.900633 238 37890ft 446kts
02-Jun-18 19:24 40.885840 -74.900633 238 37890ft 446kts
02-Jun-18 19:25 40.885840 -74.900633 238 37890ft 446kts
02-Jun-18 19:26 40.885840 -74.900633 238 37890ft 446kts
02-Jun-18 19:27 40.885840 -74.900633 238 37890ft 446kts
02-Jun-18 19:28 40.885840 -74.900633 238 37890ft 446kts
02-Jun-18 19:29 40.885840 -74.900633 238 37890ft 446kts
02-Jun-18 19:30 40.885840 -74.900633 238 37890ft 446kts
02-Jun-18 19:31 40.885840 -74.900633 238 37890ft 446kts
02-Jun-18 19:32 40.885840 -74.900633 238 37890ft 446kts
02-Jun-18 19:33 40.885840 -74.900633 238 37890ft 446kts
02-Jun-18 19:34 40.885840 -74.900633 238 37890ft 446kts
02-Jun-18 19:35 40.885840 -74.900633 238 37890ft 446kts
02-Jun-18 19:36 40.885840 -74.900633 238 37890ft 446kts
02-Jun-18 19:37 40.885840 -74.900633 238 37890ft 446kts
02-Jun-18 19:38 40.885840 -74.900633 238 37890ft 446kts
02-Jun-18 19:39 40.885840 -74.900633 238 37890ft 446kts
02-Jun-18 19:40 40.885840 -74.900633 238 37890ft 446kts
02-Jun-18 19:41 40.885840 -74.900633 238 37890ft 446kts
02-Jun-18 19:42 40.885840 -74.900633 238 37890ft 446kts
02-Jun-18 19:43 40.885840 -74.900633 238 37890ft 446kts
02-Jun-18 19:44 40.885840 -74.900633 238 37890ft 446kts
02-Jun-18 19:45 40.885840 -74.900633 238 37890ft 446kts
02-Jun-18 19:46 40.885840 -74.900633 238 37890ft 446kts
02-Jun-18 19:47 40.885840 -74.900633 238 37890ft 446kts
02-Jun-18 19:48 40.885840 -74.900633 238 37890ft 446kts
02-Jun-18 19:49 40.885840 -74.900633 238 37890ft 446kts
02-Jun-18 19:50 40.885840 -74.900633 238 37890ft 446kts
02-Jun-18 19:51 40.885840 -74.900633 238 37890ft 446kts
02-Jun-18 19:52 40.885840 -74.900633 238 37890ft 446kts
02-Jun-18 19:53 40.885840 -74.900633 238 37890ft 446kts
02-Jun-18 19:54 40.885840 -74.900633 238 37890ft 446kts
02-Jun-18 19:55 40.885840 -74.900633 238 37890ft 446kts
02-Jun-18 19:56 40.832366 -75.013962 239 37956ft 449kts
02-Jun-18 19:57 40.769035 -75.149378 239 37736ft 414kts
02-Jun-18 19:58 40.719000 -75.254545 239 36582ft 402kts
02-Jun-18 19:59 40.650497 -75.399081 240 34820ft 393kts
02-Jun-18 20:00 40.597387 -75.523096 241 33384ft 385kts
02-Jun-18 20:01 40.544068 -75.647779 240 31961ft 402kts
02-Jun-18 20:02 40.497630 -75.754349 239 30717ft 399kts
02-Jun-18 20:03 40.442228 -75.878597 233 29209ft 391kts
02-Jun-18 20:04 40.367089 -75.980301 222 27615ft 385kts
02-Jun-18 20:05 40.290338 -76.077222 222 26026ft 381kts
02-Jun-18 20:06 40.214325 -76.172872 222 24446ft 378kts
02-Jun-18 20:07 40.124028 -76.234645 185 22952ft 365kts
02-Jun-18 20:08 40.028050 -76.237350 176 22483ft 330kts
02-Jun-18 20:09 39.933970 -76.243349 190 21946ft 349kts
02-Jun-18 20:10 39.844502 -76.292348 210 20609ft 352kts
02-Jun-18 20:11 39.768004 -76.371108 218 19323ft 349kts
02-Jun-18 20:12 39.694926 -76.452584 218 18123ft 344kts
02-Jun-18 20:13 39.622997 -76.532964 218 16979ft 337kts
02-Jun-18 20:14 39.552571 -76.611393 218 15875ft 330kts
02-Jun-18 20:15 39.471005 -76.668321 199 13940ft 343kts
02-Jun-18 20:16 39.382012 -76.714508 199 11737ft 336kts
02-Jun-18 20:17 39.300356 -76.757150 199 9798ft 301kts
02-Jun-18 20:18 39.224233 -76.797135 199 7508ft 289kts
02-Jun-18 20:19 39.151739 -76.835793 199 5267ft 281kts
02-Jun-18 20:20 39.079888 -76.873773 199 3230ft 276kts
02-Jun-18 20:21 39.013175 -76.922304 214 2973ft 269kts
02-Jun-18 20:22 38.964578 -76.991846 230 2978ft 261kts
02-Jun-18 20:23 38.911251 -77.055442 219 2982ft 263kts
02-Jun-18 20:24 38.855559 -77.115057 219 2983ft 263kts
02-Jun-18 20:25 38.799612 -77.174979 222 2977ft 257kts
02-Jun-18 20:26 38.778412 -77.255466 259 2909ft 239kts
02-Jun-18 20:27 38.766226 -77.334159 264 2335ft 213kts
02-Jun-18 20:28 38.779538 -77.395694 327 1989ft 175kts
02-Jun-18 20:29 38.819113 -77.421499 336 1987ft 148kts
02-Jun-18 20:30 38.858048 -77.434988 351 1803ft 147kts
02-Jun-18 20:31 38.898934 -77.436632 0 788ft 145kts
02-Jun-18 20:32 38.936294 -77.436288 3 326ft 67kts
02-Jun-18 20:33 38.944565 -77.438548 1 325ft 29kts
02-Jun-18 20:34 38.947214 -77.441156 273 325ft 10kts
02-Jun-18 20:35 38.947264 -77.444442 270 325ft 8kts
02-Jun-18 20:36 38.945911 -77.441683 197 325ft 0kts
02-Jun-18 20:37 38.945911 -77.441683 197 325ft 0kts
02-Jun-18 20:38 38.945911 -77.441683 197 325ft 0kts
02-Jun-18 20:39 38.945911 -77.441683 197 325ft 0kts
02-Jun-18 20:40 38.945911 -77.441683 197 325ft 0kts
02-Jun-18 20:41 38.945911 -77.441683 197 325ft 0kts
02-Jun-18 20:42 38.945911 -77.441683 197 325ft 0kts
02-Jun-18 20:43 38.945910 -77.441683 197 325ft 0kts
02-Jun-18 20:44 38.945910 -77.441683 197 325ft 0kts
02-Jun-18 20:45 38.945909 -77.441683 197 325ft 0kts
02-Jun-18 20:46 38.945909 -77.441684 197 325ft 0kts
02-Jun-18 20:47 38.944925 -77.444415 14 315ft 0kts

Navigation Log

Ident Type
Flight plan parsing failed, navigation log unavailable